Time;durP1;ratioP1;P1;durP2;ratioP2;P2;SDS_P1;SDS_P2;PMS_P1;PMS_P2;Temp;Humidity;BMP_temperature;BMP_pressure;BME280_temperature;BME280_humidity;BME280_pressure;Samples;Min_cycle;Max_cycle;Signal;HPM_P1;HPM_P2
2021/08/13 00:01:53;;;;;;;;;17.00;13.33;;;;;;;;5165714;27;45389;-77
2021/08/13 00:04:18;;;;;;;;;12.33;12.33;;;;;;;;5165445;27;45289;-78
2021/08/13 00:06:44;;;;;;;;;10.67;9.00;;;;;;;;5145569;27;46818;-78
2021/08/13 00:09:10;;;;;;;;;12.33;12.33;;;;;;;;5164498;27;45391;-77
2021/08/13 00:11:37;;;;;;;;;13.00;13.00;;;;;;;;5164922;27;45355;-78
2021/08/13 00:14:02;;;;;;;;;13.00;12.00;;;;;;;;5164637;27;45259;-78
2021/08/13 00:16:28;;;;;;;;;9.67;9.67;;;;;;;;5164335;27;45320;-78
2021/08/13 00:18:53;;;;;;;;;13.67;13.33;;;;;;;;5164119;27;45185;-78
2021/08/13 00:21:18;;;;;;;;;8.67;7.67;;;;;;;;5164232;27;45321;-78
2021/08/13 00:23:44;;;;;;;;;15.00;12.00;;;;;;;;5164384;27;45309;-78
2021/08/13 00:26:09;;;;;;;;;12.00;11.00;;;;;;;;5164187;27;45217;-78
2021/08/13 00:28:34;;;;;;;;;13.33;13.33;;;;;;;;5164320;27;45244;-78
2021/08/13 00:31:00;;;;;;;;;12.00;11.33;;;;;;;;5163531;27;45397;-78
2021/08/13 00:33:25;;;;;;;;;14.00;14.00;;;;;;;;5164480;27;45224;-78
2021/08/13 00:35:50;;;;;;;;;13.67;13.67;;;;;;;;5164304;27;45262;-78
2021/08/13 00:38:16;;;;;;;;;14.33;14.33;;;;;;;;5163787;27;45202;-78
2021/08/13 00:40:41;;;;;;;;;13.00;12.67;;;;;;;;5163984;27;45245;-78
2021/08/13 00:43:06;;;;;;;;;10.33;10.33;;;;;;;;5164146;27;45573;-78
2021/08/13 00:45:32;;;;;;;;;15.67;13.67;;;;;;;;5164004;27;45244;-78
2021/08/13 00:47:57;;;;;;;;;12.67;12.67;;;;;;;;5163851;27;45346;-78
2021/08/13 00:50:22;;;;;;;;;13.00;13.00;;;;;;;;5163750;27;45309;-78
2021/08/13 00:52:49;;;;;;;;;13.67;13.67;;;;;;;;5164341;27;45677;-78
2021/08/13 00:55:15;;;;;;;;;15.67;13.67;;;;;;;;5163666;27;45409;-78
2021/08/13 00:57:40;;;;;;;;;14.33;13.67;;;;;;;;5163773;27;46001;-78
2021/08/13 01:00:06;;;;;;;;;13.67;13.67;;;;;;;;5163814;27;45336;-78
2021/08/13 01:02:31;;;;;;;;;11.67;11.33;;;;;;;;5163950;27;45267;-78
2021/08/13 01:04:56;;;;;;;;;13.67;12.00;;;;;;;;5163649;27;45321;-78
2021/08/13 01:07:22;;;;;;;;;12.67;10.67;;;;;;;;5162602;27;45507;-78
2021/08/13 01:09:47;;;;;;;;;10.33;10.00;;;;;;;;5163834;27;45326;-78
2021/08/13 01:12:22;;;;;;;;;14.00;14.00;;;;;;;;5163693;27;45296;-78
2021/08/13 01:15:02;;;;;;;;;14.67;11.00;;;;;;;;5163626;27;45316;-78
2021/08/13 01:17:31;;;;;;;;;12.00;12.00;;;;;;;;5163267;27;45357;-78
2021/08/13 01:19:56;;;;;;;;;12.00;12.00;;;;;;;;5163375;27;45246;-78
2021/08/13 01:22:25;;;;;;;;;14.00;12.00;;;;;;;;5163446;27;45266;-78
2021/08/13 01:24:52;;;;;;;;;15.00;13.33;;;;;;;;5163484;27;45281;-78
2021/08/13 01:27:18;;;;;;;;;10.00;10.00;;;;;;;;5163469;27;46188;-78
2021/08/13 01:30:02;;;;;;;;;15.33;13.67;;;;;;;;5162998;27;45320;-78
2021/08/13 01:32:28;;;;;;;;;13.33;13.00;;;;;;;;5163688;27;45170;-77
2021/08/13 01:35:03;;;;;;;;;16.33;16.33;;;;;;;;5163971;27;45607;-78
2021/08/13 01:37:29;;;;;;;;;14.33;13.33;;;;;;;;5163072;27;45480;-77
2021/08/13 01:39:55;;;;;;;;;12.33;11.67;;;;;;;;5162768;27;45328;-78
2021/08/13 01:42:20;;;;;;;;;11.67;11.67;;;;;;;;5163454;27;45231;-78
2021/08/13 01:44:46;;;;;;;;;13.67;13.67;;;;;;;;5163150;27;45465;-78
2021/08/13 01:47:12;;;;;;;;;13.00;11.00;;;;;;;;5163352;27;46229;-78
2021/08/13 01:49:38;;;;;;;;;12.67;12.67;;;;;;;;5162994;27;45322;-78
2021/08/13 01:52:04;;;;;;;;;11.67;11.67;;;;;;;;5144311;27;45341;-78
2021/08/13 01:54:30;;;;;;;;;15.00;13.33;;;;;;;;5162796;27;45407;-78
2021/08/13 01:56:56;;;;;;;;;13.33;13.33;;;;;;;;5162982;27;45242;-78
2021/08/13 01:59:21;;;;;;;;;10.33;10.33;;;;;;;;5162804;27;45365;-78
2021/08/13 02:01:47;;;;;;;;;14.00;13.67;;;;;;;;5163362;27;45275;-78
2021/08/13 02:04:19;;;;;;;;;12.00;12.00;;;;;;;;5162828;27;45501;-78
2021/08/13 02:06:46;;;;;;;;;11.67;11.67;;;;;;;;5162635;27;45294;-78
2021/08/13 02:09:12;;;;;;;;;14.00;12.67;;;;;;;;5143480;27;45550;-78
2021/08/13 02:11:37;;;;;;;;;12.00;11.00;;;;;;;;5162792;27;45378;-77
2021/08/13 02:14:03;;;;;;;;;15.33;11.00;;;;;;;;5162575;27;45222;-78
2021/08/13 02:16:30;;;;;;;;;14.00;13.00;;;;;;;;5162511;27;46017;-78
2021/08/13 02:19:03;;;;;;;;;14.33;14.00;;;;;;;;5163570;27;45352;-77
2021/08/13 02:21:31;;;;;;;;;13.00;11.33;;;;;;;;5166203;27;45379;-78
2021/08/13 02:23:56;;;;;;;;;16.00;15.00;;;;;;;;5166402;27;45475;-78
2021/08/13 02:26:21;;;;;;;;;15.00;14.33;;;;;;;;5166645;27;45833;-78
2021/08/13 02:28:47;;;;;;;;;15.00;15.00;;;;;;;;5166374;27;45418;-78
2021/08/13 02:31:12;;;;;;;;;12.33;12.33;;;;;;;;5166214;27;45286;-78
2021/08/13 02:33:37;;;;;;;;;13.00;13.00;;;;;;;;5166417;27;45303;-78
2021/08/13 02:36:08;;;;;;;;;12.67;12.67;;;;;;;;5166271;27;45300;-78
2021/08/13 02:38:37;;;;;;;;;14.33;12.67;;;;;;;;5165905;27;45393;-78
2021/08/13 02:41:04;;;;;;;;;16.67;15.33;;;;;;;;5166426;27;45227;-78
2021/08/13 02:43:33;;;;;;;;;14.67;14.00;;;;;;;;5166530;27;45593;-78
2021/08/13 02:46:00;;;;;;;;;14.33;14.33;;;;;;;;5147571;27;47491;-78
2021/08/13 02:48:27;;;;;;;;;12.67;12.67;;;;;;;;5166028;27;45356;-78
2021/08/13 02:50:54;;;;;;;;;12.00;12.00;;;;;;;;5166950;27;45340;-78
2021/08/13 02:53:21;;;;;;;;;13.00;13.00;;;;;;;;5167059;27;45474;-78
2021/08/13 02:55:50;;;;;;;;;16.67;14.00;;;;;;;;5165943;27;46456;-78
2021/08/13 02:58:17;;;;;;;;;14.33;14.33;;;;;;;;5166834;27;45296;-78
2021/08/13 03:00:43;;;;;;;;;11.00;10.33;;;;;;;;5166703;27;45278;-78
2021/08/13 03:03:10;;;;;;;;;13.67;13.00;;;;;;;;5166478;27;45285;-78
2021/08/13 03:05:39;;;;;;;;;17.00;16.00;;;;;;;;5166313;27;45298;-78
2021/08/13 03:08:05;;;;;;;;;13.67;13.67;;;;;;;;5166322;27;45393;-78
2021/08/13 03:10:32;;;;;;;;;15.67;14.67;;;;;;;;5166796;27;45332;-78
2021/08/13 03:12:57;;;;;;;;;15.67;13.33;;;;;;;;5165927;27;45257;-78
2021/08/13 03:15:23;;;;;;;;;14.67;14.33;;;;;;;;5165628;27;45315;-77
2021/08/13 03:17:48;;;;;;;;;17.33;15.67;;;;;;;;5166154;27;45498;-77
2021/08/13 03:20:14;;;;;;;;;18.00;16.67;;;;;;;;5148662;27;45434;-79
2021/08/13 03:22:39;;;;;;;;;14.00;14.00;;;;;;;;5166679;27;45210;-78
2021/08/13 03:25:05;;;;;;;;;9.67;9.33;;;;;;;;5146960;27;46465;-78
2021/08/13 03:27:31;;;;;;;;;16.33;15.33;;;;;;;;5166177;27;45281;-78
2021/08/13 03:29:56;;;;;;;;;13.00;13.00;;;;;;;;5165775;27;45348;-78
2021/08/13 03:32:21;;;;;;;;;16.00;14.33;;;;;;;;5165351;27;45460;-78
2021/08/13 03:34:47;;;;;;;;;14.67;14.00;;;;;;;;5166585;27;45968;-78
2021/08/13 03:37:13;;;;;;;;;14.00;12.00;;;;;;;;5166819;27;45308;-78
2021/08/13 03:39:38;;;;;;;;;13.00;13.00;;;;;;;;5166184;27;45309;-78
2021/08/13 03:42:03;;;;;;;;;13.00;12.00;;;;;;;;5166120;27;45450;-78
2021/08/13 03:44:29;;;;;;;;;13.00;13.00;;;;;;;;5167434;27;45391;-78
2021/08/13 03:46:54;;;;;;;;;14.67;13.67;;;;;;;;5166914;27;45359;-78
2021/08/13 03:49:19;;;;;;;;;16.00;13.00;;;;;;;;5167249;27;45453;-78
2021/08/13 03:51:45;;;;;;;;;14.67;14.33;;;;;;;;5167001;27;45522;-78
2021/08/13 03:54:10;;;;;;;;;15.33;14.67;;;;;;;;5166332;27;46210;-78
2021/08/13 03:56:35;;;;;;;;;15.67;15.00;;;;;;;;5165245;27;45321;-78
2021/08/13 03:59:01;;;;;;;;;13.33;12.67;;;;;;;;5165689;27;45271;-78
2021/08/13 04:01:26;;;;;;;;;14.00;13.00;;;;;;;;5165563;27;45454;-78
2021/08/13 04:03:52;;;;;;;;;14.33;14.00;;;;;;;;5165076;27;45452;-78
2021/08/13 04:06:17;;;;;;;;;13.00;12.33;;;;;;;;5165293;27;45313;-78
2021/08/13 04:08:42;;;;;;;;;12.00;11.33;;;;;;;;5165714;27;45382;-77
2021/08/13 04:11:08;;;;;;;;;17.00;16.00;;;;;;;;5166831;27;45346;-78
2021/08/13 04:13:33;;;;;;;;;15.00;13.00;;;;;;;;5166804;27;45571;-77
2021/08/13 04:15:58;;;;;;;;;16.00;12.67;;;;;;;;5166889;27;45284;-78
2021/08/13 04:18:24;;;;;;;;;13.00;13.00;;;;;;;;5178886;27;45166;-78
2021/08/13 04:20:49;;;;;;;;;12.00;11.67;;;;;;;;5186200;27;45268;-78
2021/08/13 04:23:14;;;;;;;;;13.33;13.33;;;;;;;;5187451;27;45938;-78
2021/08/13 04:25:40;;;;;;;;;15.67;12.67;;;;;;;;5188011;27;45254;-78
2021/08/13 04:28:05;;;;;;;;;12.00;11.67;;;;;;;;5187484;27;45257;-78
2021/08/13 04:30:30;;;;;;;;;12.00;11.67;;;;;;;;5177091;27;45207;-78
2021/08/13 04:32:56;;;;;;;;;14.67;12.00;;;;;;;;5166730;27;46109;-78
2021/08/13 04:35:21;;;;;;;;;13.00;13.00;;;;;;;;5166418;27;45251;-78
2021/08/13 04:37:46;;;;;;;;;12.33;10.00;;;;;;;;5166010;27;45251;-78
2021/08/13 04:40:12;;;;;;;;;11.33;11.33;;;;;;;;5165592;27;45319;-78
2021/08/13 04:42:37;;;;;;;;;13.33;12.00;;;;;;;;5165325;27;45307;-78
2021/08/13 04:45:03;;;;;;;;;16.00;14.33;;;;;;;;5166954;27;45340;-78
2021/08/13 04:47:28;;;;;;;;;13.67;12.67;;;;;;;;5166370;27;45382;-78
2021/08/13 04:49:54;;;;;;;;;13.33;13.33;;;;;;;;5164289;27;45311;-78
2021/08/13 04:52:20;;;;;;;;;16.00;15.00;;;;;;;;5165481;27;45818;-78
2021/08/13 04:54:47;;;;;;;;;14.33;14.33;;;;;;;;5165699;27;45358;-78
2021/08/13 04:57:13;;;;;;;;;16.00;12.67;;;;;;;;5166528;27;45273;-78
2021/08/13 04:59:38;;;;;;;;;12.67;12.67;;;;;;;;5165907;27;45308;-78
2021/08/13 05:02:03;;;;;;;;;13.00;12.00;;;;;;;;5166415;27;46050;-78
2021/08/13 05:04:29;;;;;;;;;12.33;11.00;;;;;;;;5165937;27;45135;-78
2021/08/13 05:06:54;;;;;;;;;17.33;15.33;;;;;;;;5166247;27;45252;-78
2021/08/13 05:09:19;;;;;;;;;10.33;10.33;;;;;;;;5165211;27;45240;-78
2021/08/13 05:11:45;;;;;;;;;14.67;14.00;;;;;;;;5164879;27;45898;-78
2021/08/13 05:14:10;;;;;;;;;16.33;13.67;;;;;;;;5165145;27;45374;-78
2021/08/13 05:16:35;;;;;;;;;13.00;13.00;;;;;;;;5147314;27;45415;-79
2021/08/13 05:19:00;;;;;;;;;14.00;13.00;;;;;;;;5164711;27;45314;-79
2021/08/13 05:21:26;;;;;;;;;14.00;13.00;;;;;;;;5162851;27;45259;-79
2021/08/13 05:23:51;;;;;;;;;11.67;11.33;;;;;;;;5163139;27;45198;-79
2021/08/13 05:26:16;;;;;;;;;15.67;15.67;;;;;;;;5163703;27;45490;-78
2021/08/13 05:28:42;;;;;;;;;13.67;13.67;;;;;;;;5163119;27;45504;-78
2021/08/13 05:31:07;;;;;;;;;11.00;9.00;;;;;;;;5165924;27;45365;-78
2021/08/13 05:33:32;;;;;;;;;14.33;12.67;;;;;;;;5171559;27;45297;-78
2021/08/13 05:35:58;;;;;;;;;13.33;13.33;;;;;;;;5169489;27;45300;-77
2021/08/13 05:38:23;;;;;;;;;14.33;11.33;;;;;;;;5172530;27;45342;-78
2021/08/13 05:40:49;;;;;;;;;16.33;13.00;;;;;;;;5169876;27;45355;-78
2021/08/13 05:43:14;;;;;;;;;16.00;13.00;;;;;;;;5169681;27;45355;-78
2021/08/13 05:45:39;;;;;;;;;15.33;14.00;;;;;;;;5167872;27;45412;-77
2021/08/13 05:48:05;;;;;;;;;12.00;12.00;;;;;;;;5163827;27;45235;-77
2021/08/13 05:50:30;;;;;;;;;14.00;12.00;;;;;;;;5163433;27;46015;-78
2021/08/13 05:52:56;;;;;;;;;12.67;11.00;;;;;;;;5162732;27;45351;-78
2021/08/13 05:55:21;;;;;;;;;11.00;9.33;;;;;;;;5156108;27;45257;-78
2021/08/13 05:57:47;;;;;;;;;12.00;11.33;;;;;;;;5120960;27;45317;-77
2021/08/13 06:00:12;;;;;;;;;12.00;12.00;;;;;;;;5130961;27;46067;-79
2021/08/13 06:02:39;;;;;;;;;12.67;12.00;;;;;;;;5125867;27;45768;-78
2021/08/13 06:05:05;;;;;;;;;12.33;11.67;;;;;;;;5131840;27;45435;-78
2021/08/13 06:07:30;;;;;;;;;10.67;10.00;;;;;;;;5129761;27;45427;-77
2021/08/13 06:09:55;;;;;;;;;9.67;8.67;;;;;;;;5130817;27;45137;-77
2021/08/13 06:12:21;;;;;;;;;11.00;11.00;;;;;;;;5129519;27;45289;-77
2021/08/13 06:14:47;;;;;;;;;12.33;10.33;;;;;;;;5132480;27;45265;-78
2021/08/13 06:17:12;;;;;;;;;9.00;9.00;;;;;;;;5131285;27;45201;-78
2021/08/13 06:19:37;;;;;;;;;11.33;11.00;;;;;;;;5145159;27;46175;-78
2021/08/13 06:22:04;;;;;;;;;12.33;11.33;;;;;;;;5141847;27;45353;-78
2021/08/13 06:24:30;;;;;;;;;10.67;10.67;;;;;;;;5144016;27;45400;-78
2021/08/13 06:26:55;;;;;;;;;11.00;10.00;;;;;;;;5142953;27;45234;-78
2021/08/13 06:29:21;;;;;;;;;11.00;11.00;;;;;;;;5144507;27;46168;-78
2021/08/13 06:31:47;;;;;;;;;12.00;11.00;;;;;;;;5166146;27;45231;-76
2021/08/13 06:34:12;;;;;;;;;9.33;9.00;;;;;;;;5168248;27;45332;-76
2021/08/13 06:36:38;;;;;;;;;8.67;7.33;;;;;;;;5165614;27;45255;-75
2021/08/13 06:39:03;;;;;;;;;10.33;9.00;;;;;;;;5164825;27;45534;-76
2021/08/13 06:41:28;;;;;;;;;13.00;11.33;;;;;;;;5145353;27;45270;-75
2021/08/13 06:43:54;;;;;;;;;11.67;10.00;;;;;;;;5163998;27;45457;-75
2021/08/13 06:46:19;;;;;;;;;10.33;10.00;;;;;;;;5163318;27;45298;-77
2021/08/13 06:48:44;;;;;;;;;9.00;8.00;;;;;;;;5162395;27;45452;-77
2021/08/13 06:51:10;;;;;;;;;8.00;8.00;;;;;;;;5165594;27;45293;-78
2021/08/13 06:53:35;;;;;;;;;7.00;6.67;;;;;;;;5164368;27;45454;-79
2021/08/13 06:56:00;;;;;;;;;8.00;7.00;;;;;;;;5163103;27;45144;-78
2021/08/13 06:58:26;;;;;;;;;9.67;9.67;;;;;;;;5165160;27;45335;-78
2021/08/13 07:00:51;;;;;;;;;6.00;6.00;;;;;;;;5163021;27;45336;-75
2021/08/13 07:03:16;;;;;;;;;10.67;9.67;;;;;;;;5162922;27;45213;-84
2021/08/13 07:05:42;;;;;;;;;10.00;9.00;;;;;;;;5162781;27;45324;-83
2021/08/13 07:08:10;;;;;;;;;8.67;8.00;;;;;;;;5165484;27;46313;-83
2021/08/13 07:10:36;;;;;;;;;9.00;9.00;;;;;;;;5165157;27;45362;-84
2021/08/13 07:13:01;;;;;;;;;6.67;6.00;;;;;;;;5165633;27;45281;-82
2021/08/13 07:15:27;;;;;;;;;8.00;8.00;;;;;;;;5161139;27;45334;-85
2021/08/13 07:17:52;;;;;;;;;6.33;6.33;;;;;;;;5163129;27;45381;-82
2021/08/13 07:20:17;;;;;;;;;9.00;9.00;;;;;;;;5164542;27;45300;-82
2021/08/13 07:22:43;;;;;;;;;8.00;7.00;;;;;;;;5165162;27;45332;-83
2021/08/13 07:25:08;;;;;;;;;4.67;4.67;;;;;;;;5164875;27;45519;-81
2021/08/13 07:27:34;;;;;;;;;6.00;5.33;;;;;;;;5165249;27;46057;-81
2021/08/13 07:29:59;;;;;;;;;7.00;6.00;;;;;;;;5164617;27;45360;-83
2021/08/13 07:32:25;;;;;;;;;6.67;5.00;;;;;;;;5163484;27;45395;-83
2021/08/13 07:34:50;;;;;;;;;3.00;3.00;;;;;;;;5162356;27;45585;-83
2021/08/13 07:37:15;;;;;;;;;6.00;5.00;;;;;;;;5162466;27;45539;-81
2021/08/13 07:39:41;;;;;;;;;2.33;2.33;;;;;;;;5162474;27;45649;-82
2021/08/13 07:42:06;;;;;;;;;3.33;3.33;;;;;;;;5161202;27;45308;-79
2021/08/13 07:44:31;;;;;;;;;3.00;1.67;;;;;;;;5159527;27;45325;-81
2021/08/13 07:46:57;;;;;;;;;3.00;3.00;;;;;;;;5163247;27;45352;-82
2021/08/13 07:49:22;;;;;;;;;3.33;3.33;;;;;;;;5163602;27;45337;-81
2021/08/13 07:51:47;;;;;;;;;3.00;3.00;;;;;;;;5163637;27;45375;-81
2021/08/13 07:54:13;;;;;;;;;2.33;2.00;;;;;;;;5163156;27;45478;-81
2021/08/13 07:56:38;;;;;;;;;4.00;4.00;;;;;;;;5163583;27;45325;-82
2021/08/13 07:59:03;;;;;;;;;2.00;2.00;;;;;;;;5163882;27;45682;-81
2021/08/13 08:01:29;;;;;;;;;2.33;2.33;;;;;;;;5163363;27;45417;-82
2021/08/13 08:03:55;;;;;;;;;3.33;3.33;;;;;;;;5163073;27;45510;-82
2021/08/13 08:06:20;;;;;;;;;3.67;3.00;;;;;;;;5162892;27;45355;-84
2021/08/13 08:08:45;;;;;;;;;3.00;3.00;;;;;;;;5162612;27;45380;-83
2021/08/13 08:11:11;;;;;;;;;5.00;5.00;;;;;;;;5163136;27;45441;-85
2021/08/13 08:13:36;;;;;;;;;4.00;4.00;;;;;;;;5163227;27;45438;-84
2021/08/13 08:16:03;;;;;;;;;4.00;4.00;;;;;;;;5163167;27;45994;-85
2021/08/13 08:18:29;;;;;;;;;5.33;5.00;;;;;;;;5159805;27;45400;-82
2021/08/13 08:20:54;;;;;;;;;3.00;3.00;;;;;;;;5163100;27;45209;-82
2021/08/13 08:23:19;;;;;;;;;5.00;4.33;;;;;;;;5162346;27;45311;-82
2021/08/13 08:25:45;;;;;;;;;5.00;5.00;;;;;;;;5160845;27;45951;-82
2021/08/13 08:28:10;;;;;;;;;2.67;2.00;;;;;;;;5163559;27;45264;-80
2021/08/13 08:30:35;;;;;;;;;4.33;3.00;;;;;;;;5147575;27;45496;-82
2021/08/13 08:33:01;;;;;;;;;3.67;2.33;;;;;;;;5165690;27;45543;-81
2021/08/13 08:35:26;;;;;;;;;3.00;3.00;;;;;;;;5165689;27;45202;-81
2021/08/13 08:37:56;;;;;;;;;2.67;1.33;;;;;;;;5164587;27;45338;-83
2021/08/13 08:40:29;;;;;;;;;3.00;2.00;;;;;;;;5164337;27;45422;-81
2021/08/13 08:42:56;;;;;;;;;4.00;2.67;;;;;;;;5160137;27;45555;-82
2021/08/13 08:45:22;;;;;;;;;3.00;2.33;;;;;;;;5156107;27;45359;-82
2021/08/13 08:47:48;;;;;;;;;2.00;2.00;;;;;;;;5164278;27;45301;-81
2021/08/13 08:50:13;;;;;;;;;2.00;2.00;;;;;;;;5164777;27;45303;-83
2021/08/13 08:52:39;;;;;;;;;3.00;3.00;;;;;;;;5164331;27;45640;-82
2021/08/13 08:55:06;;;;;;;;;5.00;3.67;;;;;;;;5145043;27;45395;-84
2021/08/13 08:57:33;;;;;;;;;9.67;9.67;;;;;;;;5164411;27;45340;-82
2021/08/13 08:59:59;;;;;;;;;3.00;3.00;;;;;;;;5164071;27;45342;-80
2021/08/13 09:02:25;;;;;;;;;3.33;2.00;;;;;;;;5163972;27;45466;-77
2021/08/13 09:04:50;;;;;;;;;4.00;4.00;;;;;;;;5163651;27;46207;-77
2021/08/13 09:07:15;;;;;;;;;3.67;3.67;;;;;;;;5162696;27;45227;-81
2021/08/13 09:09:41;;;;;;;;;4.67;3.67;;;;;;;;5162774;27;45385;-80
2021/08/13 09:12:07;;;;;;;;;2.00;2.00;;;;;;;;5162913;27;45442;-80
2021/08/13 09:14:36;;;;;;;;;2.67;2.67;;;;;;;;5158162;27;45784;-80
2021/08/13 09:17:02;;;;;;;;;3.67;3.67;;;;;;;;5162390;27;45337;-79
2021/08/13 09:20:00;;;;;;;;;5.00;3.67;;;;;;;;5152762;27;45231;-79
2021/08/13 09:22:25;;;;;;;;;1.67;1.67;;;;;;;;5086325;27;45377;-79
2021/08/13 09:24:55;;;;;;;;;1.00;1.00;;;;;;;;5130730;27;45403;-79
2021/08/13 09:27:20;;;;;;;;;6.00;5.00;;;;;;;;5127147;27;45292;-76
2021/08/13 09:30:04;;;;;;;;;5.33;4.00;;;;;;;;5128868;27;45264;-79
2021/08/13 09:32:29;;;;;;;;;2.00;2.00;;;;;;;;5163036;27;45375;-79
2021/08/13 09:34:55;;;;;;;;;2.33;1.33;;;;;;;;5162814;27;45318;-79
2021/08/13 09:37:21;;;;;;;;;2.00;2.00;;;;;;;;5153431;27;45315;-79
2021/08/13 09:39:52;;;;;;;;;2.33;1.67;;;;;;;;5113635;27;45390;-79
2021/08/13 09:42:17;;;;;;;;;4.00;4.00;;;;;;;;5110128;27;45386;-78
2021/08/13 09:44:42;;;;;;;;;2.00;2.00;;;;;;;;5130372;27;45405;-78
2021/08/13 09:47:09;;;;;;;;;3.67;3.00;;;;;;;;5128524;27;45249;-79
2021/08/13 09:49:35;;;;;;;;;3.33;3.00;;;;;;;;5128410;27;45512;-77
2021/08/13 09:52:18;;;;;;;;;2.33;2.33;;;;;;;;5127339;27;45503;-77
2021/08/13 09:54:44;;;;;;;;;4.33;3.33;;;;;;;;5129481;27;45629;-77
2021/08/13 09:57:11;;;;;;;;;2.00;1.33;;;;;;;;5136236;27;45597;-78
2021/08/13 09:59:37;;;;;;;;;4.00;4.00;;;;;;;;5141562;27;45348;-78
2021/08/13 10:02:09;;;;;;;;;2.00;2.00;;;;;;;;5141797;27;45425;-78
2021/08/13 10:04:36;;;;;;;;;3.00;2.00;;;;;;;;5138885;27;45202;-79
2021/08/13 10:07:01;;;;;;;;;3.00;3.00;;;;;;;;5138474;27;45321;-78
2021/08/13 10:09:28;;;;;;;;;3.00;3.00;;;;;;;;5123257;27;45472;-78
2021/08/13 10:11:54;;;;;;;;;4.00;4.00;;;;;;;;5141771;27;45280;-79
2021/08/13 10:14:26;;;;;;;;;5.33;4.33;;;;;;;;5141556;27;45312;-78
2021/08/13 10:16:52;;;;;;;;;6.00;4.00;;;;;;;;5141741;27;45257;-79
2021/08/13 10:19:17;;;;;;;;;5.00;5.00;;;;;;;;5162022;27;45220;-79
2021/08/13 10:21:43;;;;;;;;;5.33;5.33;;;;;;;;5162200;27;45302;-79
2021/08/13 10:24:08;;;;;;;;;4.00;4.00;;;;;;;;5162287;27;46216;-78
2021/08/13 10:26:34;;;;;;;;;4.00;4.00;;;;;;;;5162557;27;45311;-80
2021/08/13 10:29:00;;;;;;;;;5.00;5.00;;;;;;;;5162610;27;45336;-79
2021/08/13 10:31:25;;;;;;;;;5.00;4.67;;;;;;;;5162052;27;45299;-79
2021/08/13 10:33:52;;;;;;;;;5.67;5.33;;;;;;;;5161413;27;45565;-79
2021/08/13 10:36:18;;;;;;;;;6.00;4.00;;;;;;;;5158736;27;45470;-80
2021/08/13 10:38:46;;;;;;;;;5.33;5.33;;;;;;;;5161150;27;45410;-78
2021/08/13 10:41:12;;;;;;;;;7.33;7.33;;;;;;;;5163847;27;45277;-79
2021/08/13 10:43:39;;;;;;;;;8.67;7.00;;;;;;;;5164428;27;45411;-78
2021/08/13 10:46:06;;;;;;;;;4.33;4.33;;;;;;;;5165673;27;45388;-78
2021/08/13 10:48:34;;;;;;;;;6.00;6.00;;;;;;;;5165804;27;45369;-80
2021/08/13 10:51:00;;;;;;;;;5.67;5.67;;;;;;;;5161734;27;45500;-79
2021/08/13 10:53:33;;;;;;;;;5.00;5.00;;;;;;;;5158707;27;45436;-79
2021/08/13 10:55:59;;;;;;;;;5.67;5.67;;;;;;;;5161069;27;45415;-79
2021/08/13 10:58:36;;;;;;;;;8.00;6.67;;;;;;;;5143974;27;45282;-80
2021/08/13 11:01:12;;;;;;;;;7.00;6.00;;;;;;;;5158769;27;45466;-79
2021/08/13 11:03:39;;;;;;;;;6.00;5.00;;;;;;;;5152398;27;45600;-79
2021/08/13 11:06:05;;;;;;;;;6.00;6.00;;;;;;;;5152041;27;45354;-80
2021/08/13 11:08:39;;;;;;;;;6.33;6.33;;;;;;;;5152028;27;45514;-80
2021/08/13 11:11:04;;;;;;;;;7.00;6.00;;;;;;;;5160065;27;45773;-79
2021/08/13 11:13:34;;;;;;;;;7.67;6.00;;;;;;;;5146142;27;46456;-80
2021/08/13 11:16:00;;;;;;;;;7.00;6.67;;;;;;;;5144554;27;45391;-79
2021/08/13 11:18:29;;;;;;;;;7.33;7.00;;;;;;;;5144251;27;45320;-80
2021/08/13 11:20:54;;;;;;;;;6.33;5.67;;;;;;;;5143950;27;45563;-80
2021/08/13 11:23:19;;;;;;;;;7.33;7.33;;;;;;;;5150849;27;45384;-78
2021/08/13 11:25:49;;;;;;;;;9.33;8.00;;;;;;;;5164147;27;45315;-77
2021/08/13 11:28:16;;;;;;;;;6.00;6.00;;;;;;;;5154207;27;45361;-77
2021/08/13 11:30:42;;;;;;;;;7.33;7.00;;;;;;;;5164410;27;45489;-77
2021/08/13 11:33:26;;;;;;;;;6.00;6.00;;;;;;;;5165175;27;45237;-78
2021/08/13 11:35:52;;;;;;;;;7.67;7.67;;;;;;;;5164836;27;45357;-77
2021/08/13 11:38:36;;;;;;;;;10.00;8.33;;;;;;;;5164514;27;45367;-77
2021/08/13 11:41:22;;;;;;;;;8.33;8.33;;;;;;;;5164472;27;45331;-79
2021/08/13 11:43:57;;;;;;;;;7.00;7.00;;;;;;;;5164846;27;45580;-81
2021/08/13 11:46:23;;;;;;;;;6.67;6.67;;;;;;;;5161189;27;45481;-79
2021/08/13 11:48:49;;;;;;;;;8.67;8.67;;;;;;;;5163572;27;45355;-80
2021/08/13 11:51:14;;;;;;;;;8.33;8.33;;;;;;;;5163278;27;45411;-81
2021/08/13 11:53:41;;;;;;;;;8.00;6.67;;;;;;;;5163071;27;45432;-80
2021/08/13 11:56:06;;;;;;;;;8.33;8.33;;;;;;;;5162567;27;45423;-80
2021/08/13 11:58:32;;;;;;;;;7.33;7.33;;;;;;;;5163527;27;45375;-84
2021/08/13 12:01:01;;;;;;;;;10.33;8.67;;;;;;;;5164280;27;45423;-81
2021/08/13 12:03:27;;;;;;;;;9.67;7.00;;;;;;;;5163675;27;45363;-82
2021/08/13 12:05:52;;;;;;;;;8.00;8.00;;;;;;;;5163270;27;45347;-82
2021/08/13 12:08:17;;;;;;;;;12.00;11.33;;;;;;;;5163334;27;45349;-81
2021/08/13 12:10:47;;;;;;;;;10.00;10.00;;;;;;;;5164063;27;45496;-84
2021/08/13 12:13:13;;;;;;;;;12.00;12.00;;;;;;;;5164057;27;45339;-82
2021/08/13 12:15:39;;;;;;;;;11.33;11.33;;;;;;;;5163023;27;45911;-80
2021/08/13 12:18:06;;;;;;;;;11.00;11.00;;;;;;;;5155034;27;45499;-81
2021/08/13 12:20:32;;;;;;;;;11.33;9.33;;;;;;;;5142565;27;45319;-83
2021/08/13 12:22:59;;;;;;;;;11.67;11.67;;;;;;;;5132215;27;45672;-81
2021/08/13 12:25:30;;;;;;;;;10.67;10.00;;;;;;;;5123902;27;45360;-79
2021/08/13 12:27:55;;;;;;;;;10.67;10.67;;;;;;;;5124241;27;45408;-79
2021/08/13 12:30:21;;;;;;;;;12.00;11.00;;;;;;;;5135681;27;45290;-78
2021/08/13 12:32:47;;;;;;;;;10.33;10.33;;;;;;;;5139807;27;46408;-78
2021/08/13 12:35:13;;;;;;;;;21.67;21.33;;;;;;;;5133811;27;45373;-76
2021/08/13 12:37:40;;;;;;;;;9.33;9.33;;;;;;;;5131705;27;45496;-75
2021/08/13 12:40:06;;;;;;;;;17.00;14.67;;;;;;;;5134215;27;45375;-76
2021/08/13 12:42:32;;;;;;;;;10.67;10.33;;;;;;;;5131167;27;45395;-76
2021/08/13 12:44:59;;;;;;;;;11.33;11.33;;;;;;;;5141773;27;45354;-76
2021/08/13 12:47:24;;;;;;;;;12.67;12.33;;;;;;;;5146936;27;45259;-77
2021/08/13 12:49:50;;;;;;;;;12.33;12.33;;;;;;;;5152497;27;45295;-76
2021/08/13 12:52:20;;;;;;;;;11.00;10.33;;;;;;;;5145655;27;45310;-79
2021/08/13 12:54:49;;;;;;;;;9.67;9.33;;;;;;;;5145307;27;44697;-77
2021/08/13 12:57:15;;;;;;;;;11.67;11.33;;;;;;;;5149634;27;44627;-77
2021/08/13 12:59:43;;;;;;;;;10.67;10.00;;;;;;;;5141572;27;45342;-78
2021/08/13 13:02:17;;;;;;;;;11.00;11.00;;;;;;;;5133703;27;45311;-78
2021/08/13 13:04:43;;;;;;;;;11.67;11.00;;;;;;;;5133821;27;45362;-78
2021/08/13 13:07:10;;;;;;;;;12.00;12.00;;;;;;;;5131276;27;45309;-78
2021/08/13 13:09:36;;;;;;;;;9.67;9.33;;;;;;;;5137552;27;45393;-76
2021/08/13 13:12:31;;;;;;;;;12.00;12.00;;;;;;;;5126328;27;45350;-78
2021/08/13 13:14:57;;;;;;;;;13.33;13.33;;;;;;;;5099292;27;45441;-78
2021/08/13 13:17:23;;;;;;;;;14.33;14.00;;;;;;;;5132998;27;45351;-78
2021/08/13 13:20:05;;;;;;;;;13.00;13.00;;;;;;;;5145141;27;45403;-78
2021/08/13 13:22:31;;;;;;;;;12.00;12.00;;;;;;;;5141620;27;45386;-79
2021/08/13 13:25:15;;;;;;;;;11.33;11.33;;;;;;;;5141833;27;45433;-80
2021/08/13 13:27:59;;;;;;;;;14.00;14.00;;;;;;;;5142340;27;45292;-81
2021/08/13 13:30:37;;;;;;;;;15.00;15.00;;;;;;;;5157064;27;45468;-82
2021/08/13 13:33:02;;;;;;;;;12.67;12.67;;;;;;;;5162405;27;45467;-81
2021/08/13 13:35:28;;;;;;;;;12.00;11.67;;;;;;;;5156025;27;45312;-80
2021/08/13 13:37:54;;;;;;;;;14.33;14.33;;;;;;;;5158577;27;45423;-77
2021/08/13 13:40:19;;;;;;;;;13.00;13.00;;;;;;;;5162616;27;45406;-80
2021/08/13 13:42:44;;;;;;;;;12.33;12.33;;;;;;;;5162782;27;45459;-81
2021/08/13 13:45:12;;;;;;;;;12.00;12.00;;;;;;;;5143841;27;45273;-82
2021/08/13 13:47:38;;;;;;;;;13.33;13.33;;;;;;;;5163304;27;45139;-80
2021/08/13 13:50:03;;;;;;;;;15.00;15.00;;;;;;;;5162978;27;45388;-79
2021/08/13 13:52:29;;;;;;;;;12.33;12.33;;;;;;;;5163077;27;45734;-82
2021/08/13 13:54:54;;;;;;;;;13.00;13.00;;;;;;;;5163342;27;45368;-78
2021/08/13 13:57:19;;;;;;;;;16.00;14.67;;;;;;;;5163224;27;45354;-81
2021/08/13 13:59:45;;;;;;;;;16.00;16.00;;;;;;;;5162799;27;45488;-80
2021/08/13 14:02:10;;;;;;;;;15.33;15.33;;;;;;;;5162970;27;45306;-82
2021/08/13 14:04:35;;;;;;;;;13.00;12.67;;;;;;;;5159382;27;45895;-79
2021/08/13 14:07:00;;;;;;;;;14.00;14.00;;;;;;;;5161336;27;45341;-86
2021/08/13 14:09:26;;;;;;;;;14.67;14.67;;;;;;;;5162109;27;45473;-81
2021/08/13 14:11:51;;;;;;;;;12.67;12.67;;;;;;;;5161960;27;45426;-82
2021/08/13 14:14:16;;;;;;;;;15.00;14.33;;;;;;;;5153454;27;45415;-84
2021/08/13 14:16:42;;;;;;;;;14.00;13.00;;;;;;;;5160150;27;45401;-84
2021/08/13 14:19:07;;;;;;;;;14.33;13.67;;;;;;;;5161673;27;45321;-79
2021/08/13 14:21:32;;;;;;;;;14.33;14.33;;;;;;;;5161376;27;45376;-80
2021/08/13 14:23:58;;;;;;;;;13.33;13.33;;;;;;;;5160609;27;45664;-81